sensor_id;sensor_type;location;lat;lon;timestamp;P1;durP1;ratioP1;P2;durP2;ratioP2
10166;SDS011;62970;53.130;8.244;2023-06-24T00:03:17;7.17;;;6.40;;
10166;SDS011;62970;53.130;8.244;2023-06-24T00:05:46;7.13;;;6.53;;
10166;SDS011;62970;53.130;8.244;2023-06-24T00:08:16;7.63;;;6.47;;
10166;SDS011;62970;53.130;8.244;2023-06-24T00:13:21;6.20;;;5.60;;
10166;SDS011;62970;53.130;8.244;2023-06-24T00:15:51;6.53;;;5.93;;
10166;SDS011;62970;53.130;8.244;2023-06-24T00:18:20;6.67;;;6.07;;
10166;SDS011;62970;53.130;8.244;2023-06-24T00:20:49;7.10;;;6.27;;
10166;SDS011;62970;53.130;8.244;2023-06-24T00:23:20;7.70;;;6.53;;
10166;SDS011;62970;53.130;8.244;2023-06-24T00:25:52;7.27;;;6.63;;
10166;SDS011;62970;53.130;8.244;2023-06-24T00:28:25;7.20;;;6.50;;
10166;SDS011;62970;53.130;8.244;2023-06-24T00:30:54;7.47;;;6.77;;
10166;SDS011;62970;53.130;8.244;2023-06-24T00:33:23;7.47;;;6.77;;
10166;SDS011;62970;53.130;8.244;2023-06-24T00:35:52;7.73;;;6.87;;
10166;SDS011;62970;53.130;8.244;2023-06-24T00:38:22;7.47;;;6.53;;
10166;SDS011;62970;53.130;8.244;2023-06-24T00:40:51;7.70;;;7.00;;
10166;SDS011;62970;53.130;8.244;2023-06-24T00:43:20;8.10;;;7.30;;
10166;SDS011;62970;53.130;8.244;2023-06-24T00:45:52;7.37;;;6.77;;
10166;SDS011;62970;53.130;8.244;2023-06-24T00:48:21;7.63;;;6.93;;
10166;SDS011;62970;53.130;8.244;2023-06-24T00:50:51;7.13;;;6.33;;
10166;SDS011;62970;53.130;8.244;2023-06-24T00:53:23;7.50;;;6.70;;
10166;SDS011;62970;53.130;8.244;2023-06-24T00:55:52;7.33;;;6.63;;
10166;SDS011;62970;53.130;8.244;2023-06-24T00:58:26;7.87;;;7.07;;
10166;SDS011;62970;53.130;8.244;2023-06-24T01:00:59;7.87;;;7.20;;
10166;SDS011;62970;53.130;8.244;2023-06-24T01:03:30;8.20;;;7.23;;
10166;SDS011;62970;53.130;8.244;2023-06-24T01:06:00;8.10;;;7.30;;
10166;SDS011;62970;53.130;8.244;2023-06-24T01:08:29;8.37;;;7.57;;
10166;SDS011;62970;53.130;8.244;2023-06-24T01:10:58;8.37;;;7.57;;
10166;SDS011;62970;53.130;8.244;2023-06-24T01:13:28;8.47;;;7.77;;
10166;SDS011;62970;53.130;8.244;2023-06-24T01:16:02;10.17;;;8.23;;
10166;SDS011;62970;53.130;8.244;2023-06-24T01:18:41;7.97;;;7.13;;
10166;SDS011;62970;53.130;8.244;2023-06-24T01:24:17;7.97;;;7.17;;
10166;SDS011;62970;53.130;8.244;2023-06-24T01:27:22;8.40;;;7.70;;
10166;SDS011;62970;53.130;8.244;2023-06-24T01:30:35;7.93;;;7.23;;
10166;SDS011;62970;53.130;8.244;2023-06-24T01:33:26;7.97;;;7.17;;
10166;SDS011;62970;53.130;8.244;2023-06-24T01:36:05;8.60;;;7.90;;
10166;SDS011;62970;53.130;8.244;2023-06-24T01:38:41;8.93;;;7.90;;
10166;SDS011;62970;53.130;8.244;2023-06-24T01:41:16;8.17;;;7.37;;
10166;SDS011;62970;53.130;8.244;2023-06-24T01:43:50;8.57;;;7.73;;
10166;SDS011;62970;53.130;8.244;2023-06-24T01:46:23;8.73;;;7.90;;
10166;SDS011;62970;53.130;8.244;2023-06-24T01:49:01;7.70;;;7.00;;
10166;SDS011;62970;53.130;8.244;2023-06-24T01:54:56;8.23;;;7.43;;
10166;SDS011;62970;53.130;8.244;2023-06-24T01:57:28;8.77;;;7.97;;
10166;SDS011;62970;53.130;8.244;2023-06-24T02:00:01;8.80;;;7.93;;
10166;SDS011;62970;53.130;8.244;2023-06-24T02:08:26;9.03;;;8.13;;
10166;SDS011;62970;53.130;8.244;2023-06-24T02:11:01;8.27;;;7.57;;
10166;SDS011;62970;53.130;8.244;2023-06-24T02:13:32;9.33;;;8.43;;
10166;SDS011;62970;53.130;8.244;2023-06-24T02:16:04;9.53;;;8.53;;
10166;SDS011;62970;53.130;8.244;2023-06-24T02:18:37;9.73;;;8.50;;
10166;SDS011;62970;53.130;8.244;2023-06-24T02:21:12;10.30;;;9.30;;
10166;SDS011;62970;53.130;8.244;2023-06-24T02:23:44;9.17;;;8.33;;
10166;SDS011;62970;53.130;8.244;2023-06-24T02:26:14;9.90;;;9.00;;
10166;SDS011;62970;53.130;8.244;2023-06-24T02:28:44;10.97;;;9.37;;
10166;SDS011;62970;53.130;8.244;2023-06-24T02:31:14;10.23;;;9.27;;
10166;SDS011;62970;53.130;8.244;2023-06-24T02:33:44;10.20;;;9.27;;
10166;SDS011;62970;53.130;8.244;2023-06-24T02:36:16;10.23;;;9.33;;
10166;SDS011;62970;53.130;8.244;2023-06-24T02:38:45;10.60;;;9.63;;
10166;SDS011;62970;53.130;8.244;2023-06-24T02:41:14;9.67;;;8.73;;
10166;SDS011;62970;53.130;8.244;2023-06-24T02:43:44;10.90;;;9.80;;
10166;SDS011;62970;53.130;8.244;2023-06-24T02:46:13;11.10;;;10.00;;
10166;SDS011;62970;53.130;8.244;2023-06-24T02:48:44;10.17;;;9.27;;
10166;SDS011;62970;53.130;8.244;2023-06-24T02:53:52;10.53;;;9.53;;
10166;SDS011;62970;53.130;8.244;2023-06-24T02:56:24;10.90;;;9.80;;
10166;SDS011;62970;53.130;8.244;2023-06-24T02:58:55;11.83;;;10.67;;
10166;SDS011;62970;53.130;8.244;2023-06-24T03:04:30;11.60;;;10.53;;
10166;SDS011;62970;53.130;8.244;2023-06-24T03:07:00;11.13;;;10.10;;
10166;SDS011;62970;53.130;8.244;2023-06-24T03:09:33;10.47;;;9.43;;
10166;SDS011;62970;53.130;8.244;2023-06-24T03:14:53;11.40;;;10.33;;
10166;SDS011;62970;53.130;8.244;2023-06-24T03:17:22;11.50;;;10.40;;
10166;SDS011;62970;53.130;8.244;2023-06-24T03:19:53;11.70;;;10.60;;
10166;SDS011;62970;53.130;8.244;2023-06-24T03:22:24;13.37;;;11.80;;
10166;SDS011;62970;53.130;8.244;2023-06-24T03:24:56;11.47;;;10.47;;
10166;SDS011;62970;53.130;8.244;2023-06-24T03:27:25;11.90;;;10.80;;
10166;SDS011;62970;53.130;8.244;2023-06-24T03:29:56;11.77;;;10.67;;
10166;SDS011;62970;53.130;8.244;2023-06-24T03:35:13;12.20;;;11.00;;
10166;SDS011;62970;53.130;8.244;2023-06-24T03:37:43;11.80;;;10.70;;
10166;SDS011;62970;53.130;8.244;2023-06-24T03:45:44;12.20;;;11.00;;
10166;SDS011;62970;53.130;8.244;2023-06-24T03:48:13;11.97;;;10.90;;
10166;SDS011;62970;53.130;8.244;2023-06-24T03:50:43;11.87;;;10.77;;
10166;SDS011;62970;53.130;8.244;2023-06-24T03:53:12;12.07;;;11.00;;
10166;SDS011;62970;53.130;8.244;2023-06-24T03:55:41;11.77;;;10.57;;
10166;SDS011;62970;53.130;8.244;2023-06-24T03:58:10;12.70;;;11.50;;
10166;SDS011;62970;53.130;8.244;2023-06-24T04:00:44;12.37;;;11.17;;
10166;SDS011;62970;53.130;8.244;2023-06-24T04:03:14;12.50;;;11.40;;
10166;SDS011;62970;53.130;8.244;2023-06-24T04:05:44;14.13;;;11.53;;
10166;SDS011;62970;53.130;8.244;2023-06-24T04:08:13;12.27;;;11.10;;
10166;SDS011;62970;53.130;8.244;2023-06-24T04:10:42;13.13;;;11.83;;
10166;SDS011;62970;53.130;8.244;2023-06-24T04:13:12;13.87;;;12.50;;
10166;SDS011;62970;53.130;8.244;2023-06-24T04:15:44;13.07;;;11.87;;
10166;SDS011;62970;53.130;8.244;2023-06-24T04:18:13;13.80;;;12.50;;
10166;SDS011;62970;53.130;8.244;2023-06-24T04:20:43;12.23;;;11.10;;
10166;SDS011;62970;53.130;8.244;2023-06-24T04:23:12;13.50;;;12.17;;
10166;SDS011;62970;53.130;8.244;2023-06-24T04:25:41;12.87;;;11.57;;
10166;SDS011;62970;53.130;8.244;2023-06-24T04:28:11;12.10;;;11.00;;
10166;SDS011;62970;53.130;8.244;2023-06-24T04:33:10;13.23;;;11.93;;
10166;SDS011;62970;53.130;8.244;2023-06-24T04:35:40;12.20;;;11.00;;
10166;SDS011;62970;53.130;8.244;2023-06-24T04:38:09;12.67;;;11.47;;
10166;SDS011;62970;53.130;8.244;2023-06-24T04:40:43;12.00;;;10.90;;
10166;SDS011;62970;53.130;8.244;2023-06-24T04:43:12;11.83;;;10.77;;
10166;SDS011;62970;53.130;8.244;2023-06-24T04:45:42;13.40;;;12.20;;
10166;SDS011;62970;53.130;8.244;2023-06-24T04:48:14;12.97;;;11.67;;
10166;SDS011;62970;53.130;8.244;2023-06-24T04:50:47;12.13;;;11.03;;
10166;SDS011;62970;53.130;8.244;2023-06-24T04:53:18;12.10;;;11.00;;
10166;SDS011;62970;53.130;8.244;2023-06-24T04:55:47;11.90;;;10.70;;
10166;SDS011;62970;53.130;8.244;2023-06-24T04:58:17;11.00;;;9.93;;
10166;SDS011;62970;53.130;8.244;2023-06-24T05:03:43;11.63;;;10.20;;
10166;SDS011;62970;53.130;8.244;2023-06-24T05:06:13;11.27;;;9.37;;
10166;SDS011;62970;53.130;8.244;2023-06-24T05:08:42;10.37;;;9.47;;
10166;SDS011;62970;53.130;8.244;2023-06-24T05:11:11;10.43;;;9.40;;
10166;SDS011;62970;53.130;8.244;2023-06-24T05:13:40;9.67;;;8.83;;
10166;SDS011;62970;53.130;8.244;2023-06-24T05:16:10;9.97;;;9.07;;
10166;SDS011;62970;53.130;8.244;2023-06-24T05:18:39;10.15;;;9.15;;
10166;SDS011;62970;53.130;8.244;2023-06-24T05:21:12;8.98;;;8.05;;
10166;SDS011;62970;53.130;8.244;2023-06-24T05:23:41;9.65;;;8.77;;
10166;SDS011;62970;53.130;8.244;2023-06-24T05:26:10;9.32;;;8.35;;
10166;SDS011;62970;53.130;8.244;2023-06-24T05:28:39;8.90;;;8.15;;
10166;SDS011;62970;53.130;8.244;2023-06-24T05:31:08;9.82;;;8.13;;
10166;SDS011;62970;53.130;8.244;2023-06-24T05:33:37;8.73;;;8.02;;
10166;SDS011;62970;53.130;8.244;2023-06-24T05:36:09;8.60;;;7.82;;
10166;SDS011;62970;53.130;8.244;2023-06-24T05:38:38;8.20;;;7.53;;
10166;SDS011;62970;53.130;8.244;2023-06-24T05:41:08;8.18;;;7.47;;
10166;SDS011;62970;53.130;8.244;2023-06-24T05:43:37;7.95;;;7.35;;
10166;SDS011;62970;53.130;8.244;2023-06-24T05:46:06;8.07;;;7.38;;
10166;SDS011;62970;53.130;8.244;2023-06-24T05:48:36;7.30;;;6.72;;
10166;SDS011;62970;53.130;8.244;2023-06-24T05:51:10;6.93;;;6.32;;
10166;SDS011;62970;53.130;8.244;2023-06-24T05:53:40;6.82;;;6.22;;
10166;SDS011;62970;53.130;8.244;2023-06-24T05:56:09;6.07;;;5.57;;
10166;SDS011;62970;53.130;8.244;2023-06-24T05:58:38;6.43;;;5.82;;
10166;SDS011;62970;53.130;8.244;2023-06-24T06:01:09;5.53;;;5.13;;
10166;SDS011;62970;53.130;8.244;2023-06-24T06:03:39;5.80;;;5.28;;
10166;SDS011;62970;53.130;8.244;2023-06-24T06:06:11;5.50;;;5.05;;
10166;SDS011;62970;53.130;8.244;2023-06-24T06:08:40;5.30;;;4.90;;
10166;SDS011;62970;53.130;8.244;2023-06-24T06:11:10;4.93;;;4.53;;
10166;SDS011;62970;53.130;8.244;2023-06-24T06:13:39;5.15;;;4.75;;
10166;SDS011;62970;53.130;8.244;2023-06-24T06:16:08;5.60;;;5.07;;
10166;SDS011;62970;53.130;8.244;2023-06-24T06:18:38;5.40;;;4.90;;
10166;SDS011;62970;53.130;8.244;2023-06-24T06:21:07;5.15;;;4.65;;
10166;SDS011;62970;53.130;8.244;2023-06-24T06:23:39;5.28;;;4.68;;
10166;SDS011;62970;53.130;8.244;2023-06-24T06:26:09;5.43;;;4.93;;
10166;SDS011;62970;53.130;8.244;2023-06-24T06:28:38;4.68;;;4.18;;
10166;SDS011;62970;53.130;8.244;2023-06-24T06:31:07;5.85;;;4.32;;
10166;SDS011;62970;53.130;8.244;2023-06-24T06:33:36;5.25;;;4.72;;
10166;SDS011;62970;53.130;8.244;2023-06-24T06:36:12;4.88;;;4.25;;
10166;SDS011;62970;53.130;8.244;2023-06-24T06:38:43;4.80;;;4.40;;
10166;SDS011;62970;53.130;8.244;2023-06-24T06:41:12;4.10;;;3.80;;
10166;SDS011;62970;53.130;8.244;2023-06-24T06:43:42;4.50;;;4.10;;
10166;SDS011;62970;53.130;8.244;2023-06-24T06:46:12;5.30;;;4.07;;
10166;SDS011;62970;53.130;8.244;2023-06-24T06:48:41;5.03;;;4.53;;
10166;SDS011;62970;53.130;8.244;2023-06-24T06:51:13;4.03;;;3.67;;
10166;SDS011;62970;53.130;8.244;2023-06-24T06:53:43;3.70;;;3.40;;
10166;SDS011;62970;53.130;8.244;2023-06-24T06:56:16;4.15;;;3.75;;
10166;SDS011;62970;53.130;8.244;2023-06-24T06:58:46;3.63;;;3.33;;
10166;SDS011;62970;53.130;8.244;2023-06-24T07:01:15;3.83;;;3.53;;
10166;SDS011;62970;53.130;8.244;2023-06-24T07:03:46;3.95;;;3.65;;
10166;SDS011;62970;53.130;8.244;2023-06-24T07:06:21;4.07;;;3.67;;
10166;SDS011;62970;53.130;8.244;2023-06-24T07:08:50;3.67;;;3.38;;
10166;SDS011;62970;53.130;8.244;2023-06-24T07:11:19;3.95;;;3.65;;
10166;SDS011;62970;53.130;8.244;2023-06-24T07:13:48;3.85;;;3.55;;
10166;SDS011;62970;53.130;8.244;2023-06-24T07:16:19;6.78;;;3.80;;
10166;SDS011;62970;53.130;8.244;2023-06-24T07:18:49;4.03;;;3.72;;
10166;SDS011;62970;53.130;8.244;2023-06-24T07:21:21;3.85;;;3.15;;
10166;SDS011;62970;53.130;8.244;2023-06-24T07:23:52;5.38;;;3.17;;
10166;SDS011;62970;53.130;8.244;2023-06-24T07:26:22;3.92;;;3.53;;
10166;SDS011;62970;53.130;8.244;2023-06-24T07:28:55;3.83;;;3.47;;
10166;SDS011;62970;53.130;8.244;2023-06-24T07:31:25;3.63;;;3.33;;
10166;SDS011;62970;53.130;8.244;2023-06-24T07:33:54;3.92;;;3.63;;
10166;SDS011;62970;53.130;8.244;2023-06-24T07:36:26;3.63;;;3.33;;
10166;SDS011;62970;53.130;8.244;2023-06-24T07:38:56;3.78;;;3.47;;
10166;SDS011;62970;53.130;8.244;2023-06-24T07:41:25;3.65;;;3.35;;
10166;SDS011;62970;53.130;8.244;2023-06-24T07:43:54;3.50;;;3.20;;
10166;SDS011;62970;53.130;8.244;2023-06-24T07:46:23;3.15;;;2.92;;
10166;SDS011;62970;53.130;8.244;2023-06-24T07:48:53;3.45;;;3.15;;
10166;SDS011;62970;53.130;8.244;2023-06-24T07:51:23;3.60;;;3.22;;
10166;SDS011;62970;53.130;8.244;2023-06-24T07:53:55;3.70;;;3.40;;
10166;SDS011;62970;53.130;8.244;2023-06-24T07:56:25;3.90;;;3.60;;
10166;SDS011;62970;53.130;8.244;2023-06-24T07:58:54;3.58;;;3.28;;
10166;SDS011;62970;53.130;8.244;2023-06-24T08:01:24;3.80;;;3.40;;
10166;SDS011;62970;53.130;8.244;2023-06-24T08:03:53;5.80;;;3.50;;
10166;SDS011;62970;53.130;8.244;2023-06-24T08:06:22;3.63;;;3.40;;
10166;SDS011;62970;53.130;8.244;2023-06-24T08:08:55;3.75;;;3.50;;
10166;SDS011;62970;53.130;8.244;2023-06-24T08:11:24;5.53;;;3.70;;
10166;SDS011;62970;53.130;8.244;2023-06-24T08:13:53;3.75;;;3.40;;
10166;SDS011;62970;53.130;8.244;2023-06-24T08:16:22;3.72;;;3.30;;
10166;SDS011;62970;53.130;8.244;2023-06-24T08:18:51;3.67;;;3.35;;
10166;SDS011;62970;53.130;8.244;2023-06-24T08:21:21;3.70;;;3.40;;
10166;SDS011;62970;53.130;8.244;2023-06-24T08:23:55;4.30;;;3.38;;
10166;SDS011;62970;53.130;8.244;2023-06-24T08:26:24;3.65;;;3.35;;
10166;SDS011;62970;53.130;8.244;2023-06-24T08:28:53;3.33;;;3.03;;
10166;SDS011;62970;53.130;8.244;2023-06-24T08:31:24;3.22;;;2.83;;
10166;SDS011;62970;53.130;8.244;2023-06-24T08:33:54;3.70;;;3.40;;
10166;SDS011;62970;53.130;8.244;2023-06-24T08:36:30;3.55;;;3.25;;
10166;SDS011;62970;53.130;8.244;2023-06-24T08:38:59;4.80;;;3.40;;
10166;SDS011;62970;53.130;8.244;2023-06-24T08:41:29;3.95;;;3.17;;
10166;SDS011;62970;53.130;8.244;2023-06-24T08:43:58;4.40;;;3.50;;
10166;SDS011;62970;53.130;8.244;2023-06-24T08:46:28;3.88;;;3.47;;
10166;SDS011;62970;53.130;8.244;2023-06-24T08:49:02;3.55;;;3.25;;
10166;SDS011;62970;53.130;8.244;2023-06-24T08:51:41;3.90;;;3.63;;
10166;SDS011;62970;53.130;8.244;2023-06-24T08:54:14;3.97;;;3.67;;
10166;SDS011;62970;53.130;8.244;2023-06-24T08:56:44;3.90;;;3.60;;
10166;SDS011;62970;53.130;8.244;2023-06-24T08:59:13;3.67;;;3.38;;
10166;SDS011;62970;53.130;8.244;2023-06-24T09:01:45;3.83;;;3.53;;
10166;SDS011;62970;53.130;8.244;2023-06-24T09:04:15;3.90;;;3.58;;
10166;SDS011;62970;53.130;8.244;2023-06-24T09:06:46;4.40;;;4.00;;
10166;SDS011;62970;53.130;8.244;2023-06-24T09:09:19;3.83;;;3.40;;
10166;SDS011;62970;53.130;8.244;2023-06-24T09:11:51;4.10;;;3.70;;
10166;SDS011;62970;53.130;8.244;2023-06-24T09:14:22;4.30;;;3.70;;
10166;SDS011;62970;53.130;8.244;2023-06-24T09:16:53;3.85;;;3.47;;
10166;SDS011;62970;53.130;8.244;2023-06-24T09:19:26;4.15;;;3.50;;
10166;SDS011;62970;53.130;8.244;2023-06-24T09:22:02;4.60;;;3.78;;
10166;SDS011;62970;53.130;8.244;2023-06-24T09:24:33;4.18;;;3.80;;
10166;SDS011;62970;53.130;8.244;2023-06-24T09:27:05;4.95;;;3.75;;
10166;SDS011;62970;53.130;8.244;2023-06-24T09:29:35;4.05;;;3.70;;
10166;SDS011;62970;53.130;8.244;2023-06-24T09:32:05;4.30;;;3.97;;
10166;SDS011;62970;53.130;8.244;2023-06-24T09:34:36;5.30;;;3.95;;
10166;SDS011;62970;53.130;8.244;2023-06-24T09:37:09;4.13;;;3.72;;
10166;SDS011;62970;53.130;8.244;2023-06-24T09:39:39;5.63;;;3.97;;
10166;SDS011;62970;53.130;8.244;2023-06-24T09:42:10;3.85;;;3.55;;
10166;SDS011;62970;53.130;8.244;2023-06-24T09:44:41;4.35;;;4.00;;
10166;SDS011;62970;53.130;8.244;2023-06-24T09:47:11;4.20;;;3.80;;
10166;SDS011;62970;53.130;8.244;2023-06-24T09:49:40;5.15;;;4.20;;
10166;SDS011;62970;53.130;8.244;2023-06-24T09:52:12;4.35;;;4.05;;
10166;SDS011;62970;53.130;8.244;2023-06-24T09:54:42;5.15;;;4.65;;
10166;SDS011;62970;53.130;8.244;2023-06-24T09:57:14;4.57;;;4.07;;
10166;SDS011;62970;53.130;8.244;2023-06-24T09:59:47;5.43;;;3.88;;
10166;SDS011;62970;53.130;8.244;2023-06-24T10:02:17;4.15;;;3.75;;
10166;SDS011;62970;53.130;8.244;2023-06-24T10:04:48;4.90;;;4.38;;
10166;SDS011;62970;53.130;8.244;2023-06-24T10:07:21;3.83;;;3.53;;
10166;SDS011;62970;53.130;8.244;2023-06-24T10:09:51;4.70;;;4.30;;
10166;SDS011;62970;53.130;8.244;2023-06-24T10:12:21;4.50;;;4.10;;
10166;SDS011;62970;53.130;8.244;2023-06-24T10:14:51;4.40;;;4.00;;
10166;SDS011;62970;53.130;8.244;2023-06-24T10:17:20;5.43;;;4.80;;
10166;SDS011;62970;53.130;8.244;2023-06-24T10:19:51;3.85;;;3.50;;
10166;SDS011;62970;53.130;8.244;2023-06-24T10:22:24;5.30;;;4.50;;
10166;SDS011;62970;53.130;8.244;2023-06-24T10:24:59;4.30;;;3.97;;
10166;SDS011;62970;53.130;8.244;2023-06-24T10:27:38;4.72;;;4.18;;
10166;SDS011;62970;53.130;8.244;2023-06-24T10:30:08;4.70;;;4.30;;
10166;SDS011;62970;53.130;8.244;2023-06-24T10:32:45;5.07;;;4.68;;
10166;SDS011;62970;53.130;8.244;2023-06-24T10:35:22;4.35;;;4.00;;
10166;SDS011;62970;53.130;8.244;2023-06-24T10:37:58;4.78;;;4.32;;
10166;SDS011;62970;53.130;8.244;2023-06-24T10:40:35;4.70;;;4.30;;
10166;SDS011;62970;53.130;8.244;2023-06-24T10:45:57;7.13;;;4.00;;
10166;SDS011;62970;53.130;8.244;2023-06-24T10:48:27;5.85;;;4.28;;
10166;SDS011;62970;53.130;8.244;2023-06-24T10:50:56;4.13;;;3.80;;
10166;SDS011;62970;53.130;8.244;2023-06-24T10:53:28;4.95;;;4.55;;
10166;SDS011;62970;53.130;8.244;2023-06-24T10:55:58;4.55;;;4.15;;
10166;SDS011;62970;53.130;8.244;2023-06-24T10:58:27;4.40;;;4.10;;
10166;SDS011;62970;53.130;8.244;2023-06-24T11:01:06;4.75;;;4.18;;
10166;SDS011;62970;53.130;8.244;2023-06-24T11:03:36;4.43;;;3.95;;
10166;SDS011;62970;53.130;8.244;2023-06-24T11:06:10;4.25;;;3.95;;
10166;SDS011;62970;53.130;8.244;2023-06-24T11:08:49;4.25;;;3.85;;
10166;SDS011;62970;53.130;8.244;2023-06-24T11:11:19;5.28;;;4.35;;
10166;SDS011;62970;53.130;8.244;2023-06-24T11:13:50;4.93;;;4.32;;
10166;SDS011;62970;53.130;8.244;2023-06-24T11:16:20;4.68;;;4.28;;
10166;SDS011;62970;53.130;8.244;2023-06-24T11:18:50;4.70;;;4.28;;
10166;SDS011;62970;53.130;8.244;2023-06-24T11:21:19;4.50;;;4.18;;
10166;SDS011;62970;53.130;8.244;2023-06-24T11:24:02;4.28;;;3.97;;
10166;SDS011;62970;53.130;8.244;2023-06-24T11:26:32;4.72;;;4.43;;
10166;SDS011;62970;53.130;8.244;2023-06-24T11:29:07;5.05;;;4.65;;
10166;SDS011;62970;53.130;8.244;2023-06-24T11:31:38;4.70;;;4.18;;
10166;SDS011;62970;53.130;8.244;2023-06-24T11:34:08;5.82;;;5.22;;
10166;SDS011;62970;53.130;8.244;2023-06-24T11:36:38;4.45;;;4.05;;
10166;SDS011;62970;53.130;8.244;2023-06-24T11:39:19;5.38;;;3.97;;
10166;SDS011;62970;53.130;8.244;2023-06-24T11:41:50;4.35;;;3.97;;
10166;SDS011;62970;53.130;8.244;2023-06-24T11:44:20;4.32;;;3.95;;
10166;SDS011;62970;53.130;8.244;2023-06-24T11:46:52;4.07;;;3.70;;
10166;SDS011;62970;53.130;8.244;2023-06-24T11:49:31;4.13;;;3.83;;
10166;SDS011;62970;53.130;8.244;2023-06-24T11:52:00;4.82;;;4.43;;
10166;SDS011;62970;53.130;8.244;2023-06-24T11:54:39;3.92;;;3.60;;
10166;SDS011;62970;53.130;8.244;2023-06-24T11:57:10;6.10;;;4.30;;
10166;SDS011;62970;53.130;8.244;2023-06-24T11:59:39;4.22;;;3.92;;
10166;SDS011;62970;53.130;8.244;2023-06-24T12:02:12;4.55;;;3.58;;
10166;SDS011;62970;53.130;8.244;2023-06-24T12:04:43;4.25;;;3.95;;
10166;SDS011;62970;53.130;8.244;2023-06-24T12:07:12;4.05;;;3.75;;
10166;SDS011;62970;53.130;8.244;2023-06-24T12:09:45;4.05;;;3.75;;
10166;SDS011;62970;53.130;8.244;2023-06-24T12:12:14;3.78;;;3.47;;
10166;SDS011;62970;53.130;8.244;2023-06-24T12:14:44;4.50;;;4.00;;
10166;SDS011;62970;53.130;8.244;2023-06-24T12:17:13;4.45;;;4.15;;
10166;SDS011;62970;53.130;8.244;2023-06-24T12:19:42;4.60;;;3.85;;
10166;SDS011;62970;53.130;8.244;2023-06-24T12:22:12;4.47;;;4.18;;
10166;SDS011;62970;53.130;8.244;2023-06-24T12:24:41;4.18;;;3.88;;
10166;SDS011;62970;53.130;8.244;2023-06-24T12:27:13;4.35;;;3.90;;
10166;SDS011;62970;53.130;8.244;2023-06-24T12:29:42;4.18;;;3.88;;
10166;SDS011;62970;53.130;8.244;2023-06-24T12:32:12;4.05;;;3.65;;
10166;SDS011;62970;53.130;8.244;2023-06-24T12:34:41;3.95;;;3.53;;
10166;SDS011;62970;53.130;8.244;2023-06-24T12:37:10;4.40;;;4.00;;
10166;SDS011;62970;53.130;8.244;2023-06-24T12:39:39;4.38;;;4.07;;
10166;SDS011;62970;53.130;8.244;2023-06-24T12:42:11;4.28;;;3.97;;
10166;SDS011;62970;53.130;8.244;2023-06-24T12:44:41;4.78;;;4.28;;
10166;SDS011;62970;53.130;8.244;2023-06-24T12:47:10;4.82;;;4.07;;
10166;SDS011;62970;53.130;8.244;2023-06-24T12:49:39;4.50;;;4.10;;
10166;SDS011;62970;53.130;8.244;2023-06-24T12:52:08;4.30;;;4.00;;
10166;SDS011;62970;53.130;8.244;2023-06-24T12:54:38;3.92;;;3.63;;
10166;SDS011;62970;53.130;8.244;2023-06-24T12:57:07;4.30;;;4.00;;
10166;SDS011;62970;53.130;8.244;2023-06-24T12:59:39;4.30;;;3.90;;
10166;SDS011;62970;53.130;8.244;2023-06-24T13:02:08;4.57;;;4.18;;
10166;SDS011;62970;53.130;8.244;2023-06-24T13:04:37;4.68;;;4.05;;
10166;SDS011;62970;53.130;8.244;2023-06-24T13:07:06;4.53;;;4.13;;
10166;SDS011;62970;53.130;8.244;2023-06-24T13:09:36;4.43;;;4.03;;
10166;SDS011;62970;53.130;8.244;2023-06-24T13:12:06;4.28;;;3.88;;
10166;SDS011;62970;53.130;8.244;2023-06-24T13:14:38;4.07;;;3.78;;
10166;SDS011;62970;53.130;8.244;2023-06-24T13:17:08;4.68;;;4.03;;
10166;SDS011;62970;53.130;8.244;2023-06-24T13:19:37;3.97;;;3.67;;
10166;SDS011;62970;53.130;8.244;2023-06-24T13:22:06;4.47;;;4.07;;
10166;SDS011;62970;53.130;8.244;2023-06-24T13:24:35;5.18;;;3.72;;
10166;SDS011;62970;53.130;8.244;2023-06-24T13:27:05;5.05;;;3.72;;
10166;SDS011;62970;53.130;8.244;2023-06-24T13:29:35;3.90;;;3.60;;
10166;SDS011;62970;53.130;8.244;2023-06-24T13:32:08;3.53;;;3.30;;
10166;SDS011;62970;53.130;8.244;2023-06-24T13:34:38;3.97;;;3.50;;
10166;SDS011;62970;53.130;8.244;2023-06-24T13:37:08;3.65;;;3.35;;
10166;SDS011;62970;53.130;8.244;2023-06-24T13:39:38;3.72;;;3.42;;
10166;SDS011;62970;53.130;8.244;2023-06-24T13:42:07;4.05;;;3.75;;
10166;SDS011;62970;53.130;8.244;2023-06-24T13:44:40;3.95;;;3.65;;
10166;SDS011;62970;53.130;8.244;2023-06-24T13:47:10;3.63;;;3.15;;
10166;SDS011;62970;53.130;8.244;2023-06-24T13:49:39;4.03;;;3.70;;
10166;SDS011;62970;53.130;8.244;2023-06-24T13:52:09;3.75;;;3.42;;
10166;SDS011;62970;53.130;8.244;2023-06-24T13:54:38;3.88;;;3.58;;
10166;SDS011;62970;53.130;8.244;2023-06-24T13:57:08;3.80;;;3.50;;
10166;SDS011;62970;53.130;8.244;2023-06-24T13:59:37;4.55;;;4.20;;
10166;SDS011;62970;53.130;8.244;2023-06-24T14:02:08;3.88;;;3.45;;
10166;SDS011;62970;53.130;8.244;2023-06-24T14:04:38;4.03;;;3.72;;
10166;SDS011;62970;53.130;8.244;2023-06-24T14:07:07;3.92;;;3.60;;
10166;SDS011;62970;53.130;8.244;2023-06-24T14:09:37;3.90;;;3.60;;
10166;SDS011;62970;53.130;8.244;2023-06-24T14:12:07;3.50;;;3.22;;
10166;SDS011;62970;53.130;8.244;2023-06-24T14:14:40;3.55;;;3.30;;
10166;SDS011;62970;53.130;8.244;2023-06-24T14:17:09;4.00;;;3.67;;
10166;SDS011;62970;53.130;8.244;2023-06-24T14:19:38;4.57;;;4.18;;
10166;SDS011;62970;53.130;8.244;2023-06-24T14:22:08;4.13;;;3.83;;
10166;SDS011;62970;53.130;8.244;2023-06-24T14:24:38;4.05;;;3.70;;
10166;SDS011;62970;53.130;8.244;2023-06-24T14:27:07;4.53;;;4.13;;
10166;SDS011;62970;53.130;8.244;2023-06-24T14:29:36;3.95;;;3.65;;
10166;SDS011;62970;53.130;8.244;2023-06-24T14:32:08;4.25;;;3.95;;
10166;SDS011;62970;53.130;8.244;2023-06-24T14:34:37;4.47;;;4.07;;
10166;SDS011;62970;53.130;8.244;2023-06-24T14:37:06;4.28;;;3.97;;
10166;SDS011;62970;53.130;8.244;2023-06-24T14:39:35;4.03;;;3.72;;
10166;SDS011;62970;53.130;8.244;2023-06-24T14:42:05;4.28;;;3.90;;
10166;SDS011;62970;53.130;8.244;2023-06-24T14:44:35;4.53;;;4.13;;
10166;SDS011;62970;53.130;8.244;2023-06-24T14:47:09;4.30;;;4.00;;
10166;SDS011;62970;53.130;8.244;2023-06-24T14:49:39;4.13;;;3.83;;
10166;SDS011;62970;53.130;8.244;2023-06-24T14:52:08;3.97;;;3.58;;
10166;SDS011;62970;53.130;8.244;2023-06-24T14:54:37;3.95;;;3.65;;
10166;SDS011;62970;53.130;8.244;2023-06-24T14:57:06;3.92;;;3.63;;
10166;SDS011;62970;53.130;8.244;2023-06-24T14:59:35;3.90;;;3.60;;
10166;SDS011;62970;53.130;8.244;2023-06-24T15:02:06;4.43;;;4.03;;
10166;SDS011;62970;53.130;8.244;2023-06-24T15:04:38;4.75;;;4.25;;
10166;SDS011;62970;53.130;8.244;2023-06-24T15:07:07;4.20;;;3.80;;
10166;SDS011;62970;53.130;8.244;2023-06-24T15:09:36;3.85;;;3.55;;
10166;SDS011;62970;53.130;8.244;2023-06-24T15:12:06;4.18;;;3.78;;
10166;SDS011;62970;53.130;8.244;2023-06-24T15:14:36;4.00;;;3.70;;
10166;SDS011;62970;53.130;8.244;2023-06-24T15:17:05;4.07;;;3.78;;
10166;SDS011;62970;53.130;8.244;2023-06-24T15:19:37;4.07;;;3.78;;
10166;SDS011;62970;53.130;8.244;2023-06-24T15:22:06;4.30;;;3.75;;
10166;SDS011;62970;53.130;8.244;2023-06-24T15:24:36;4.05;;;3.67;;
10166;SDS011;62970;53.130;8.244;2023-06-24T15:27:06;4.30;;;3.90;;
10166;SDS011;62970;53.130;8.244;2023-06-24T15:29:35;3.95;;;3.65;;
10166;SDS011;62970;53.130;8.244;2023-06-24T15:32:04;3.92;;;3.53;;
10166;SDS011;62970;53.130;8.244;2023-06-24T15:34:37;3.80;;;3.50;;
10166;SDS011;62970;53.130;8.244;2023-06-24T15:37:06;4.00;;;3.70;;
10166;SDS011;62970;53.130;8.244;2023-06-24T15:39:35;4.60;;;3.60;;
10166;SDS011;62970;53.130;8.244;2023-06-24T15:42:04;3.80;;;3.50;;
10166;SDS011;62970;53.130;8.244;2023-06-24T15:44:35;4.07;;;3.78;;
10166;SDS011;62970;53.130;8.244;2023-06-24T15:47:04;6.13;;;3.65;;